Time;durP1;ratioP1;P1;durP2;ratioP2;P2;SDS_P1;SDS_P2;PMS_P1;PMS_P2;Temp;Humidity;BMP_temperature;BMP_pressure;BME280_temperature;BME280_humidity;BME280_pressure;Samples;Min_cycle;Max_cycle;Signal;HPM_P1;HPM_P2
2024/03/21 00:02:39;;;;;;;;;;;;;;;20.87;47.03;95991.38;10463893;28;2761;-72
2024/03/21 00:07:46;;;;;;;;;;;;;;;20.85;47.09;95989.03;10466334;28;2857;-74
2024/03/21 00:12:46;;;;;;;;;;;;;;;20.83;46.76;95980.59;10466066;28;2842;-73
2024/03/21 00:17:47;;;;;;;;;;;;;;;20.81;46.66;95982.69;10461097;28;2852;-74
2024/03/21 00:22:47;;;;;;;;;;;;;;;20.80;46.70;95969.78;10464586;28;2813;-74
2024/03/21 00:27:50;;;;;;;;;;;;;;;20.78;46.81;95967.44;10450743;28;2863;-74
2024/03/21 00:32:50;;;;;;;;;;;;;;;20.78;46.65;95961.38;10480856;28;2634;-74
2024/03/21 00:37:51;;;;;;;;;;;;;;;20.75;46.60;95961.94;10445403;28;2964;-74
2024/03/21 00:42:51;;;;;;;;;;;;;;;20.74;46.41;95962.97;10463906;28;2791;-73
2024/03/21 00:47:52;;;;;;;;;;;;;;;20.74;46.57;95965.59;10463317;28;2934;-74
2024/03/21 00:52:52;;;;;;;;;;;;;;;20.72;46.31;95965.09;10466130;28;2869;-74
2024/03/21 00:57:53;;;;;;;;;;;;;;;20.71;46.28;95953.75;10463672;28;2731;-74
2024/03/21 01:02:53;;;;;;;;;;;;;;;20.70;46.25;95946.13;10481087;28;2804;-74
2024/03/21 01:07:54;;;;;;;;;;;;;;;20.68;46.24;95950.88;10497149;28;2811;-73
2024/03/21 01:12:54;;;;;;;;;;;;;;;20.68;46.15;95956.94;10460558;28;2650;-73
2024/03/21 01:17:56;;;;;;;;;;;;;;;20.65;46.13;95954.84;10466942;28;2560;-73
2024/03/21 01:22:58;;;;;;;;;;;;;;;20.66;46.11;95953.00;10481248;28;2850;-74
2024/03/21 01:28:00;;;;;;;;;;;;;;;20.64;46.16;95950.63;10457100;28;2802;-73
2024/03/21 01:33:00;;;;;;;;;;;;;;;20.63;46.26;95949.03;10446768;28;2826;-73
2024/03/21 01:38:00;;;;;;;;;;;;;;;20.62;45.98;95939.56;10460778;28;2816;-73
2024/03/21 01:43:01;;;;;;;;;;;;;;;20.61;46.36;95930.09;10460265;28;2830;-74
2024/03/21 01:48:02;;;;;;;;;;;;;;;20.60;46.10;95923.25;10459528;28;2737;-73
2024/03/21 01:53:02;;;;;;;;;;;;;;;20.59;46.20;95920.88;10463693;28;2949;-73
2024/03/21 01:58:03;;;;;;;;;;;;;;;20.58;46.05;95924.56;10458381;28;2834;-74
2024/03/21 02:03:03;;;;;;;;;;;;;;;20.57;46.00;95921.16;10459299;28;2863;-74
2024/03/21 02:08:04;;;;;;;;;;;;;;;20.57;45.97;95925.63;10463667;28;2751;-74
2024/03/21 02:13:05;;;;;;;;;;;;;;;20.54;46.01;95921.69;10493507;28;2842;-74
2024/03/21 02:18:06;;;;;;;;;;;;;;;20.54;45.78;95916.44;10458942;28;2805;-75
2024/03/21 02:23:06;;;;;;;;;;;;;;;20.54;45.80;95919.06;10493408;28;2762;-74
2024/03/21 02:28:06;;;;;;;;;;;;;;;20.52;45.43;95905.38;10460174;28;2723;-73
2024/03/21 02:33:07;;;;;;;;;;;;;;;20.51;45.72;95903.00;10457323;28;2832;-73
2024/03/21 02:38:07;;;;;;;;;;;;;;;20.51;45.47;95898.53;10457514;28;2955;-73
2024/03/21 02:43:07;;;;;;;;;;;;;;;20.49;45.56;95895.38;10464388;28;2585;-73
2024/03/21 02:48:08;;;;;;;;;;;;;;;20.49;45.56;95900.63;10456907;28;2728;-73
2024/03/21 02:53:08;;;;;;;;;;;;;;;20.48;45.51;95893.81;10461268;28;2587;-74
2024/03/21 02:58:08;;;;;;;;;;;;;;;20.47;45.34;95888.78;10457063;28;2803;-73
2024/03/21 03:03:09;;;;;;;;;;;;;;;20.45;45.48;95894.34;10439983;28;2840;-72
2024/03/21 03:08:09;;;;;;;;;;;;;;;20.44;45.58;95884.88;10459147;28;2790;-74
2024/03/21 03:13:09;;;;;;;;;;;;;;;20.44;45.41;95879.59;10457986;28;2782;-73
2024/03/21 03:18:10;;;;;;;;;;;;;;;20.42;45.20;95884.34;10457410;28;2927;-73
2024/03/21 03:23:10;;;;;;;;;;;;;;;20.41;45.53;95880.13;10489767;28;2897;-72
2024/03/21 03:28:10;;;;;;;;;;;;;;;20.41;45.13;95887.25;10468015;28;2781;-73
2024/03/21 03:38:30;;;;;;;;;;;;;;;20.38;45.18;95888.56;10468852;28;2845;-72
2024/03/21 03:43:30;;;;;;;;;;;;;;;20.39;45.02;95897.25;10463851;28;2737;-74
2024/03/21 03:48:30;;;;;;;;;;;;;;;20.38;45.15;95890.41;10465905;28;2869;-72
2024/03/21 03:53:31;;;;;;;;;;;;;;;20.37;45.01;95902.78;10467250;28;2817;-73
2024/03/21 03:58:31;;;;;;;;;;;;;;;20.35;45.06;95899.63;10462722;28;2852;-73
2024/03/21 04:03:31;;;;;;;;;;;;;;;20.36;45.01;95895.94;10466719;28;2831;-73
2024/03/21 04:08:32;;;;;;;;;;;;;;;20.34;45.14;95897.28;10456621;28;2825;-73
2024/03/21 04:13:32;;;;;;;;;;;;;;;20.34;45.15;95902.53;10452422;28;2624;-72
2024/03/21 04:18:32;;;;;;;;;;;;;;;20.33;45.08;95907.00;10450549;28;2910;-73
2024/03/21 04:23:33;;;;;;;;;;;;;;;20.33;44.83;95895.69;10465816;28;2783;-72
2024/03/21 04:28:33;;;;;;;;;;;;;;;20.31;45.13;95898.59;10463825;28;2855;-73
2024/03/21 04:33:36;;;;;;;;;;;;;;;20.30;44.84;95907.53;10492814;28;2861;-73
2024/03/21 04:38:36;;;;;;;;;;;;;;;20.29;44.88;95900.72;10446368;28;2796;-73
2024/03/21 04:43:36;;;;;;;;;;;;;;;20.28;44.86;95904.38;10460911;28;2803;-72
2024/03/21 04:48:36;;;;;;;;;;;;;;;20.28;44.86;95905.19;10462121;28;2902;-73
2024/03/21 04:53:37;;;;;;;;;;;;;;;20.27;44.86;95911.50;10465621;28;2761;-73
2024/03/21 04:58:37;;;;;;;;;;;;;;;20.26;44.75;95906.50;10463443;28;2575;-73
2024/03/21 05:03:37;;;;;;;;;;;;;;;20.25;44.96;95907.56;10480018;28;2849;-72
2024/03/21 05:08:37;;;;;;;;;;;;;;;20.26;44.79;95914.41;10496523;28;2737;-74
2024/03/21 05:13:42;;;;;;;;;;;;;;;20.28;44.79;95920.97;10464442;28;2791;-74
2024/03/21 05:18:42;;;;;;;;;;;;;;;20.33;44.57;95917.53;10444922;28;1430161;-73
2024/03/21 05:23:43;;;;;;;;;;;;;;;20.42;44.38;95918.59;10492978;28;2768;-73
2024/03/21 05:28:43;;;;;;;;;;;;;;;20.48;44.31;95909.63;10458647;28;2825;-72
2024/03/21 05:33:43;;;;;;;;;;;;;;;20.53;43.78;95906.94;10462559;28;2781;-72
2024/03/21 05:38:44;;;;;;;;;;;;;;;20.58;44.03;95911.41;10464662;28;2582;-72
2024/03/21 05:43:44;;;;;;;;;;;;;;;20.62;43.70;95905.34;10496550;28;3276;-73
2024/03/21 05:48:44;;;;;;;;;;;;;;;20.68;43.43;95911.38;10458929;28;2805;-70
2024/03/21 05:53:44;;;;;;;;;;;;;;;20.73;43.41;95901.59;10461171;28;2749;-69
2024/03/21 05:58:45;;;;;;;;;;;;;;;20.77;43.33;95913.16;10461478;28;2918;-71
2024/03/21 06:03:45;;;;;;;;;;;;;;;20.80;43.13;95904.72;10460277;28;2797;-74
2024/03/21 06:08:45;;;;;;;;;;;;;;;20.85;43.44;95907.34;10476763;28;2817;-74
2024/03/21 06:13:46;;;;;;;;;;;;;;;20.90;43.22;95912.56;10459898;28;2816;-74
2024/03/21 06:18:46;;;;;;;;;;;;;;;20.96;42.83;95910.69;10446123;28;2799;-75
2024/03/21 06:23:46;;;;;;;;;;;;;;;20.99;42.89;95912.81;10462611;28;2585;-74
2024/03/21 06:28:46;;;;;;;;;;;;;;;20.99;42.90;95910.97;10458632;28;2857;-71
2024/03/21 06:33:47;;;;;;;;;;;;;;;21.00;42.49;95917.78;10459967;28;2793;-70
2024/03/21 06:38:47;;;;;;;;;;;;;;;21.01;42.34;95918.59;10459387;28;3031;-71
2024/03/21 06:43:47;;;;;;;;;;;;;;;21.02;42.18;95915.69;10457829;28;2834;-75
2024/03/21 06:48:48;;;;;;;;;;;;;;;21.06;41.98;95921.25;10457733;28;2804;-73
2024/03/21 06:53:48;;;;;;;;;;;;;;;21.10;42.43;95921.47;10463288;28;2588;-72
2024/03/21 06:58:49;;;;;;;;;;;;;;;21.11;42.23;95928.31;10447020;28;2798;-72
2024/03/21 07:03:49;;;;;;;;;;;;;;;21.13;41.91;95931.47;10461411;28;2984;-72
2024/03/21 07:08:50;;;;;;;;;;;;;;;21.16;41.63;95921.19;10458559;28;2791;-72
2024/03/21 07:13:50;;;;;;;;;;;;;;;21.14;41.89;95936.47;10484063;28;2940;-72
2024/03/21 07:18:51;;;;;;;;;;;;;;;21.16;41.99;95936.19;10459087;28;2843;-73
2024/03/21 07:23:51;;;;;;;;;;;;;;;21.16;41.48;95944.91;10456264;28;2806;-71
2024/03/21 07:28:51;;;;;;;;;;;;;;;21.17;41.50;95950.94;10464288;28;2826;-72
2024/03/21 07:33:51;;;;;;;;;;;;;;;21.19;41.29;95959.38;10447882;28;2783;-72
2024/03/21 07:38:52;;;;;;;;;;;;;;;21.23;41.21;95963.81;10463643;28;2738;-71
2024/03/21 07:43:52;;;;;;;;;;;;;;;21.25;41.69;95955.63;10459416;28;2795;-72
2024/03/21 07:48:52;;;;;;;;;;;;;;;21.25;40.94;95956.44;10460237;28;2786;-71
2024/03/21 07:53:57;;;;;;;;;;;;;;;21.28;40.81;95968.28;10458260;28;2795;-70
2024/03/21 07:58:57;;;;;;;;;;;;;;;21.31;41.44;95973.81;10459210;28;2776;-71
2024/03/21 08:04:01;;;;;;;;;;;;;;;21.31;40.95;95975.66;10460061;28;2617;-72
2024/03/21 08:09:02;;;;;;;;;;;;;;;21.32;40.60;95985.94;10459519;28;2910;-72
2024/03/21 08:14:02;;;;;;;;;;;;;;;21.34;40.84;95993.56;10465209;28;2856;-73
2024/03/21 08:19:03;;;;;;;;;;;;;;;21.35;40.75;95992.53;10467353;28;2578;-72
2024/03/21 08:24:03;;;;;;;;;;;;;;;21.42;40.67;96001.69;10465889;28;2808;-72
2024/03/21 08:29:03;;;;;;;;;;;;;;;21.38;40.54;96010.41;10479014;28;2860;-72
2024/03/21 08:34:03;;;;;;;;;;;;;;;21.41;40.22;96010.66;10470231;28;2791;-73
2024/03/21 08:39:07;;;;;;;;;;;;;;;21.43;40.58;96016.44;10485842;28;2918;-71
2024/03/21 08:44:07;;;;;;;;;;;;;;;21.43;40.35;96020.97;10465188;28;2712;-71
2024/03/21 08:49:08;;;;;;;;;;;;;;;21.43;40.19;96024.34;10466917;28;2814;-70
2024/03/21 08:54:08;;;;;;;;;;;;;;;21.44;39.99;96031.22;10471074;28;2531;-72
2024/03/21 08:59:09;;;;;;;;;;;;;;;21.45;40.22;96039.94;10463630;28;2770;-71
2024/03/21 09:04:09;;;;;;;;;;;;;;;21.47;39.72;96038.59;10494691;28;2802;-71
2024/03/21 09:09:10;;;;;;;;;;;;;;;21.51;39.66;96054.66;10500017;28;2843;-71
2024/03/21 09:14:10;;;;;;;;;;;;;;;21.47;39.68;96058.91;10494823;28;2838;-70
2024/03/21 09:19:10;;;;;;;;;;;;;;;21.49;40.24;96067.34;10467410;28;2709;-71
2024/03/21 09:24:11;;;;;;;;;;;;;;;21.51;39.68;96081.03;10464658;28;2716;-70
2024/03/21 09:29:11;;;;;;;;;;;;;;;21.52;39.32;96083.41;10462450;28;2863;-69
2024/03/21 09:34:11;;;;;;;;;;;;;;;21.54;39.30;96083.91;10462895;28;2586;-69
2024/03/21 09:39:14;;;;;;;;;;;;;;;21.54;39.25;96085.75;10460297;28;2786;-70
2024/03/21 09:44:14;;;;;;;;;;;;;;;21.57;38.91;96098.44;10495013;28;2775;-69
2024/03/21 09:49:15;;;;;;;;;;;;;;;21.56;39.48;96096.84;10484846;28;2877;-69
2024/03/21 09:54:15;;;;;;;;;;;;;;;21.59;38.83;96096.31;10458398;28;2883;-68
2024/03/21 09:59:15;;;;;;;;;;;;;;;21.56;39.15;96097.63;10462229;28;2823;-69
2024/03/21 10:04:16;;;;;;;;;;;;;;;21.60;39.01;96111.84;10460099;28;2877;-69
2024/03/21 10:09:16;;;;;;;;;;;;;;;21.61;39.17;96107.38;10460607;28;2571;-68
2024/03/21 10:14:16;;;;;;;;;;;;;;;21.60;39.19;96121.59;10464016;28;2547;-68
2024/03/21 10:19:17;;;;;;;;;;;;;;;21.61;38.92;96116.09;10461967;28;2882;-68
2024/03/21 10:24:17;;;;;;;;;;;;;;;21.61;39.13;96107.38;10446960;28;2973;-68
2024/03/21 10:29:17;;;;;;;;;;;;;;;21.59;38.66;96104.22;10443087;28;2906;-69
2024/03/21 10:34:18;;;;;;;;;;;;;;;21.61;38.97;96104.72;10444180;28;2822;-67
2024/03/21 10:39:18;;;;;;;;;;;;;;;21.58;38.80;96108.69;10462617;28;2722;-69
2024/03/21 10:44:18;;;;;;;;;;;;;;;21.58;39.22;96099.97;10460235;28;2855;-70
2024/03/21 10:49:19;;;;;;;;;;;;;;;21.57;39.29;96091.31;10456383;28;2742;-67
2024/03/21 10:54:19;;;;;;;;;;;;;;;21.61;38.92;96086.28;10466405;28;2773;-67
2024/03/21 10:59:19;;;;;;;;;;;;;;;21.60;39.00;96092.59;10443850;28;2763;-67
2024/03/21 11:04:19;;;;;;;;;;;;;;;21.60;38.67;96093.38;10455212;28;2799;-68
2024/03/21 11:09:23;;;;;;;;;;;;;;;21.64;38.62;96090.97;10446962;28;2835;-68
2024/03/21 11:14:23;;;;;;;;;;;;;;;21.62;38.96;96093.09;10444078;28;2896;-70
2024/03/21 11:19:24;;;;;;;;;;;;;;;21.62;39.13;96090.47;10489757;28;2839;-68
2024/03/21 11:24:24;;;;;;;;;;;;;;;21.59;39.01;96091.03;10459395;28;2801;-68
2024/03/21 11:29:25;;;;;;;;;;;;;;;21.60;39.18;96096.03;10465534;28;2819;-70
2024/03/21 11:34:25;;;;;;;;;;;;;;;21.53;40.04;96090.28;10459323;28;2749;-69
2024/03/21 11:39:26;;;;;;;;;;;;;;;21.52;40.21;96072.84;10459545;28;2706;-70
2024/03/21 11:44:26;;;;;;;;;;;;;;;21.52;39.80;96072.06;10459501;28;2938;-70
2024/03/21 11:49:26;;;;;;;;;;;;;;;21.49;39.92;96088.44;10470196;28;2732;-70
2024/03/21 11:54:27;;;;;;;;;;;;;;;21.50;39.97;96077.63;10470370;28;2733;-70
2024/03/21 11:59:30;;;;;;;;;;;;;;;21.46;40.28;96078.41;10468348;28;2695;-69
2024/03/21 12:04:31;;;;;;;;;;;;;;;21.50;40.18;96079.44;10469042;28;2806;-70
2024/03/21 12:09:31;;;;;;;;;;;;;;;21.42;40.74;96077.38;10469688;28;2797;-70
2024/03/21 12:14:31;;;;;;;;;;;;;;;21.43;40.09;96071.06;10466633;28;2862;-70
2024/03/21 12:19:32;;;;;;;;;;;;;;;21.45;40.28;96079.50;10469973;28;2908;-70
2024/03/21 12:24:32;;;;;;;;;;;;;;;21.46;40.14;96079.22;10434613;28;2798;-70
2024/03/21 12:29:35;;;;;;;;;;;;;;;21.43;40.59;96076.34;10452325;28;2862;-69
2024/03/21 12:34:36;;;;;;;;;;;;;;;21.46;39.84;96083.69;10484664;28;2855;-70
2024/03/21 12:39:36;;;;;;;;;;;;;;;21.45;40.17;96074.22;10451111;28;2625;-71
2024/03/21 12:44:36;;;;;;;;;;;;;;;21.44;40.54;96077.91;10465892;28;2803;-69
2024/03/21 12:49:36;;;;;;;;;;;;;;;21.46;40.03;96073.16;10449679;28;2948;-69
2024/03/21 12:54:37;;;;;;;;;;;;;;;21.47;40.28;96072.09;10462227;28;2798;-69
2024/03/21 12:59:38;;;;;;;;;;;;;;;21.46;40.10;96073.16;10483236;28;2784;-69
2024/03/21 13:04:39;;;;;;;;;;;;;;;21.48;39.71;96065.75;10466029;28;2870;-68
2024/03/21 13:09:39;;;;;;;;;;;;;;;21.45;40.03;96058.41;10469425;28;2835;-69
2024/03/21 13:14:42;;;;;;;;;;;;;;;21.44;40.36;96044.41;10484872;28;2812;-69
2024/03/21 13:19:42;;;;;;;;;;;;;;;21.41;40.80;96033.63;10448426;28;2771;-70
2024/03/21 13:24:43;;;;;;;;;;;;;;;21.44;40.72;96027.78;10497027;28;2723;-69
2024/03/21 13:29:43;;;;;;;;;;;;;;;21.43;41.00;96018.31;10437221;28;2851;-70
2024/03/21 13:34:45;;;;;;;;;;;;;;;21.39;40.95;95983.00;10466461;28;2738;-70
2024/03/21 13:39:45;;;;;;;;;;;;;;;21.37;41.18;95991.16;10466411;28;2920;-70
2024/03/21 13:44:46;;;;;;;;;;;;;;;21.37;41.54;95990.41;10462053;28;2881;-69
2024/03/21 13:49:46;;;;;;;;;;;;;;;21.35;41.44;95995.16;10493608;28;2806;-70
2024/03/21 13:54:46;;;;;;;;;;;;;;;21.34;41.36;96019.94;10462271;28;2836;-70
2024/03/21 13:59:47;;;;;;;;;;;;;;;21.31;41.64;96028.41;10462955;28;2783;-70
2024/03/21 14:04:47;;;;;;;;;;;;;;;21.29;41.65;96017.34;10456486;28;2586;-70
2024/03/21 14:09:47;;;;;;;;;;;;;;;21.27;41.61;96012.31;10458830;28;2677;-70
2024/03/21 14:14:48;;;;;;;;;;;;;;;21.22;41.71;96086.19;10462187;28;2795;-69
2024/03/21 14:19:48;;;;;;;;;;;;;;;21.20;41.82;96096.19;10459095;28;2925;-67
2024/03/21 14:24:49;;;;;;;;;;;;;;;21.19;42.06;96067.44;10458505;28;2886;-69
2024/03/21 14:29:49;;;;;;;;;;;;;;;21.15;42.10;96082.22;10461869;28;2801;-67
2024/03/21 14:34:50;;;;;;;;;;;;;;;21.14;42.12;96096.47;10490051;28;2796;-67
2024/03/21 14:39:50;;;;;;;;;;;;;;;21.14;41.89;96096.47;10477251;28;2842;-69
2024/03/21 14:44:51;;;;;;;;;;;;;;;21.14;41.81;96096.47;10463602;28;2734;-68
2024/03/21 14:49:51;;;;;;;;;;;;;;;21.15;41.93;96087.50;10463112;28;2906;-68
2024/03/21 14:54:51;;;;;;;;;;;;;;;21.17;41.74;96072.19;10460170;28;2769;-69
2024/03/21 14:59:52;;;;;;;;;;;;;;;21.17;41.66;96086.19;10475863;28;2956;-69
2024/03/21 15:04:52;;;;;;;;;;;;;;;21.19;41.78;96078.00;10474713;28;2798;-69
2024/03/21 15:09:52;;;;;;;;;;;;;;;21.21;41.56;96092.50;10463481;28;2842;-69
2024/03/21 15:14:52;;;;;;;;;;;;;;;21.22;41.53;96088.81;10457722;28;2874;-69
2024/03/21 15:19:53;;;;;;;;;;;;;;;21.24;41.56;96099.88;10460470;28;2604;-69
2024/03/21 15:24:53;;;;;;;;;;;;;;;21.25;41.16;96117.25;10485569;28;2405;-68
2024/03/21 15:29:55;;;;;;;;;;;;;;;21.28;41.47;96123.84;10466447;28;2866;-70
2024/03/21 15:34:55;;;;;;;;;;;;;;;21.29;41.25;96134.13;10470771;28;2710;-69
2024/03/21 15:39:55;;;;;;;;;;;;;;;21.31;41.22;96141.78;10472824;28;2868;-69
2024/03/21 15:44:56;;;;;;;;;;;;;;;21.35;40.94;96140.19;10498839;28;2787;-69
2024/03/21 15:49:56;;;;;;;;;;;;;;;21.36;40.83;96120.66;10463329;28;2544;-69
2024/03/21 15:54:57;;;;;;;;;;;;;;;21.34;41.09;96118.31;10469663;28;2718;-69
2024/03/21 15:59:57;;;;;;;;;;;;;;;21.38;40.55;96123.81;10466712;28;2755;-68
2024/03/21 16:04:57;;;;;;;;;;;;;;;21.40;40.79;96119.06;10480689;28;2836;-68
2024/03/21 16:09:58;;;;;;;;;;;;;;;21.41;40.91;96123.28;10452796;28;2724;-68
2024/03/21 16:14:58;;;;;;;;;;;;;;;21.44;40.30;96123.53;10464236;28;2729;-68
2024/03/21 16:19:58;;;;;;;;;;;;;;;21.47;40.27;96132.75;10464271;28;2914;-68
2024/03/21 16:25:00;;;;;;;;;;;;;;;21.46;40.33;96131.16;10469499;28;2828;-69
2024/03/21 16:30:00;;;;;;;;;;;;;;;21.50;39.75;96135.63;10467998;28;2780;-68
2024/03/21 16:35:00;;;;;;;;;;;;;;;21.52;39.45;96138.00;10450867;28;2587;-68
2024/03/21 16:40:00;;;;;;;;;;;;;;;21.54;39.52;96141.16;10467680;28;2549;-68
2024/03/21 16:45:03;;;;;;;;;;;;;;;21.54;39.13;96155.13;10464256;28;2532;-69
2024/03/21 16:50:03;;;;;;;;;;;;;;;21.55;39.60;96158.56;10461035;28;2827;-68
2024/03/21 16:55:04;;;;;;;;;;;;;;;21.54;39.91;96175.44;10464833;28;2766;-68
2024/03/21 17:00:05;;;;;;;;;;;;;;;21.58;38.89;96174.66;10460604;28;2717;-66
2024/03/21 17:05:07;;;;;;;;;;;;;;;21.58;38.91;96182.56;10459828;28;2786;-68
2024/03/21 17:10:08;;;;;;;;;;;;;;;21.60;39.43;96187.56;10442218;28;3199;-68
2024/03/21 17:15:11;;;;;;;;;;;;;;;21.61;38.93;96191.78;10460770;28;2924;-67
2024/03/21 17:20:11;;;;;;;;;;;;;;;21.59;39.64;96196.53;10444393;28;2733;-68
2024/03/21 17:25:12;;;;;;;;;;;;;;;21.61;39.26;96195.22;10461426;28;2782;-68
2024/03/21 17:30:12;;;;;;;;;;;;;;;21.61;38.90;96207.63;10459736;28;2882;-69
2024/03/21 17:35:13;;;;;;;;;;;;;;;21.61;39.06;96218.16;10474017;28;2802;-69
2024/03/21 17:40:13;;;;;;;;;;;;;;;21.58;39.48;96224.78;10461836;28;2809;-68
2024/03/21 17:45:14;;;;;;;;;;;;;;;21.59;39.54;96244.84;10458999;28;2600;-69
2024/03/21 17:50:15;;;;;;;;;;;;;;;21.59;40.04;96263.28;10442033;28;2635;-68
2024/03/21 17:55:15;;;;;;;;;;;;;;;21.57;39.66;96268.03;10474485;28;2799;-68
2024/03/21 18:00:16;;;;;;;;;;;;;;;21.51;40.24;96273.59;10458487;28;2832;-68
2024/03/21 18:05:17;;;;;;;;;;;;;;;21.48;39.91;96261.72;10460725;28;2699;-68
2024/03/21 18:10:18;;;;;;;;;;;;;;;21.51;40.11;96273.59;10464056;28;2721;-69
2024/03/21 18:15:18;;;;;;;;;;;;;;;21.49;39.95;96275.72;10447339;28;2732;-70
2024/03/21 18:20:20;;;;;;;;;;;;;;;21.45;40.32;96288.63;10490138;28;3047;-70
2024/03/21 18:25:20;;;;;;;;;;;;;;;21.47;40.22;96291.00;10459653;28;2787;-69
2024/03/21 18:30:20;;;;;;;;;;;;;;;21.46;39.97;96298.13;10490170;28;2646;-68
2024/03/21 18:35:21;;;;;;;;;;;;;;;21.44;40.15;96296.81;10455809;28;2584;-68
2024/03/21 18:40:21;;;;;;;;;;;;;;;21.44;40.32;96308.16;10475585;28;2582;-68
2024/03/21 18:45:21;;;;;;;;;;;;;;;21.46;39.82;96300.75;10490569;28;2816;-68
2024/03/21 18:50:22;;;;;;;;;;;;;;;21.47;39.69;96306.84;10461733;28;2788;-68
2024/03/21 18:55:22;;;;;;;;;;;;;;;21.48;39.64;96309.19;10462425;28;2855;-68
2024/03/21 19:00:23;;;;;;;;;;;;;;;21.48;40.18;96309.19;10464541;28;2850;-68
2024/03/21 19:05:23;;;;;;;;;;;;;;;21.51;39.52;96307.88;10454484;28;2763;-68
2024/03/21 19:10:23;;;;;;;;;;;;;;;21.51;39.87;96313.16;10456814;28;2872;-68
2024/03/21 19:15:24;;;;;;;;;;;;;;;21.48;39.64;96325.03;10491397;28;2801;-68
2024/03/21 19:20:24;;;;;;;;;;;;;;;21.50;39.95;96322.91;10474749;28;2859;-68
2024/03/21 19:25:25;;;;;;;;;;;;;;;21.50;40.09;96322.13;10457237;28;2705;-67
2024/03/21 19:30:28;;;;;;;;;;;;;;;21.51;39.80;96326.34;10455092;28;2717;-68
2024/03/21 19:35:28;;;;;;;;;;;;;;;21.47;40.03;96312.91;10456067;28;2794;-67
2024/03/21 19:40:29;;;;;;;;;;;;;;;21.45;40.22;96320.28;10459778;28;2797;-67
2024/03/21 19:45:29;;;;;;;;;;;;;;;21.45;40.00;96330.81;10450404;28;2725;-68
2024/03/21 19:50:31;;;;;;;;;;;;;;;21.38;40.68;96335.59;10458504;28;2981;-67
2024/03/21 19:55:31;;;;;;;;;;;;;;;21.38;40.48;96350.63;10458946;28;2987;-68
2024/03/21 20:00:31;;;;;;;;;;;;;;;21.36;40.32;96352.72;10459465;28;2548;-70
2024/03/21 20:05:32;;;;;;;;;;;;;;;21.33;40.68;96355.91;10454150;28;2842;-68
2024/03/21 20:10:32;;;;;;;;;;;;;;;21.31;40.47;96358.00;10443857;28;2820;-69
2024/03/21 20:15:33;;;;;;;;;;;;;;;21.30;40.93;96359.06;10466327;28;2840;-69
2024/03/21 20:20:33;;;;;;;;;;;;;;;21.30;40.57;96359.06;10465341;28;2776;-68
2024/03/21 20:25:34;;;;;;;;;;;;;;;21.30;40.67;96369.59;10463016;28;2832;-69
2024/03/21 20:30:37;;;;;;;;;;;;;;;21.31;40.35;96373.84;10455443;28;2821;-67
2024/03/21 20:35:37;;;;;;;;;;;;;;;21.30;40.51;96359.84;10460808;28;2780;-67
2024/03/21 20:40:38;;;;;;;;;;;;;;;21.33;41.15;96372.50;10440643;28;2859;-67
2024/03/21 20:45:43;;;;;;;;;;;;;;;21.33;41.77;96366.44;10461313;28;2859;-68
2024/03/21 20:50:46;;;;;;;;;;;;;;;21.35;41.49;96382.81;10461254;28;2865;-68
2024/03/21 20:55:51;;;;;;;;;;;;;;;21.34;41.70;96386.47;10444946;28;2744;-69
2024/03/21 21:01:07;;;;;;;;;;;;;;;21.33;41.65;96392.81;10450940;28;2928;-68
2024/03/21 21:06:07;;;;;;;;;;;;;;;21.32;41.72;96385.94;10455389;28;2783;-67
2024/03/21 21:11:08;;;;;;;;;;;;;;;21.31;42.00;96400.19;10442943;28;2929;-66
2024/03/21 21:16:08;;;;;;;;;;;;;;;21.29;41.99;96397.03;10488668;28;3036;-67
2024/03/21 21:21:09;;;;;;;;;;;;;;;21.25;42.19;96388.84;10476605;28;2772;-68
2024/03/21 21:26:09;;;;;;;;;;;;;;;21.25;42.37;96388.03;10459284;28;2757;-67
2024/03/21 21:31:10;;;;;;;;;;;;;;;21.23;41.99;96384.88;10460876;28;2872;-67
2024/03/21 21:36:17;;;;;;;;;;;;;;;21.20;42.20;96383.56;10460319;28;2862;-67
2024/03/21 21:41:17;;;;;;;;;;;;;;;21.16;42.29;96393.06;10492282;27;2905;-67
2024/03/21 21:46:18;;;;;;;;;;;;;;;21.16;42.15;96394.91;10459270;28;2774;-67
2024/03/21 21:51:18;;;;;;;;;;;;;;;21.12;42.30;96383.28;10490830;28;2810;-67
2024/03/21 21:56:18;;;;;;;;;;;;;;;21.11;41.93;96392.25;10480416;28;3069;-67
2024/03/21 22:01:19;;;;;;;;;;;;;;;21.08;42.09;96387.50;10457188;28;2750;-67
2024/03/21 22:06:19;;;;;;;;;;;;;;;21.07;41.93;96391.97;10457848;28;2941;-67
2024/03/21 22:11:19;;;;;;;;;;;;;;;21.03;42.09;96397.00;10454196;28;2837;-68
2024/03/21 22:16:20;;;;;;;;;;;;;;;21.02;42.17;96400.66;10462035;28;2791;-68
2024/03/21 22:21:20;;;;;;;;;;;;;;;21.02;41.98;96394.59;10461381;28;2760;-68
2024/03/21 22:26:20;;;;;;;;;;;;;;;21.00;42.03;96399.31;10460370;28;2768;-67
2024/03/21 22:31:21;;;;;;;;;;;;;;;20.99;42.18;96398.53;10460638;28;2943;-69
2024/03/21 22:36:26;;;;;;;;;;;;;;;20.97;42.04;96394.56;10440883;28;2790;-69
2024/03/21 22:41:26;;;;;;;;;;;;;;;20.95;42.12;96394.84;10491501;27;2773;-67
2024/03/21 22:46:26;;;;;;;;;;;;;;;20.92;42.13;96400.63;10462930;28;2804;-69
2024/03/21 22:51:27;;;;;;;;;;;;;;;20.91;41.93;96396.41;10465764;28;2799;-69
2024/03/21 22:56:27;;;;;;;;;;;;;;;20.89;41.87;96380.06;10460373;28;2803;-68
2024/03/21 23:01:27;;;;;;;;;;;;;;;20.87;41.80;96382.16;10460304;28;2958;-67
2024/03/21 23:06:27;;;;;;;;;;;;;;;20.87;41.60;96379.53;10445236;28;2520;-67
2024/03/21 23:11:28;;;;;;;;;;;;;;;20.85;42.13;96384.28;10438632;28;2858;-68
2024/03/21 23:16:28;;;;;;;;;;;;;;;20.82;41.90;96390.03;10459503;28;2834;-67
2024/03/21 23:21:28;;;;;;;;;;;;;;;20.81;41.91;96385.81;10476782;28;2857;-67
2024/03/21 23:26:29;;;;;;;;;;;;;;;20.80;41.84;96392.16;10462882;28;2799;-66
2024/03/21 23:31:29;;;;;;;;;;;;;;;20.77;41.83;96390.03;10460174;28;2741;-67
2024/03/21 23:36:29;;;;;;;;;;;;;;;20.78;41.70;96375.00;10460301;28;2779;-69
2024/03/21 23:41:30;;;;;;;;;;;;;;;20.76;41.64;96380.53;10474160;28;2843;-69
2024/03/21 23:46:32;;;;;;;;;;;;;;;20.76;41.76;96377.91;10469899;28;2847;-68
2024/03/21 23:51:32;;;;;;;;;;;;;;;20.73;41.52;96373.16;10469377;28;2788;-67
2024/03/21 23:56:34;;;;;;;;;;;;;;;20.72;41.45;96366.31;10467795;28;2614;-67
